map of LYS home
LYS - Airport
Location
City:  Lyon, Rhône-Alpes, France
Name:Lyon St-Exupéry Airport
Old (Alt.):Lyon Satolas Airport
ICAO:LFLL
IATA:LYS

Details
Type:Airport (Aerodrome, Airfield)
Use:Public/Civil, International (customs port of entry)
Latitude:45°43'32"N (45.725556)
Longitude:5°04'52"E (5.081111)
Elevation:821 ft (250 m)
Variation:1.56°E (WMM2015 magnetic declination)
0.12° annual change
Runways:2
Longest:13123 × 148 ft (4000 × 45 m), paved

Time
Time Zone:UTC+1 (DST+2)
Local Time:

Weather
METAR:LFLL 190200Z 15005KT CAVOK 20/12 Q1016 NOSIG
TAF:LFLL 182300Z 1900/2006 VRB02KT CAVOK
BECMG 1912/1914 36010KT
BECMG 1919/1921 VRB02KT

Related Locations
Nearby:
Farthest:CHT: 12280 mi / 19762 km
Waitangi [Tuuta], CIT, NZ

Find:

   beyond  
but within

Other Information
Maps:
NOTAMs:
Links:
Sources:

  
  • flag of France
  • flag of Rhône-Alpes
  • flag of Lyon
  

Sectional Chart

Flight Planning
at skyvector.com

Satellite Image

Google Maps Satellite view

 

Copyright © 2004-2018 Karl L. Swartz. All rights reserved.
The Great Circle Mapper name and logo are trademarks of the Great Circle Mapper.
All other trademarks mentioned herein belong to their respective owners.
Please see credits for attibutions and further copyright information.

  Follow gcmap on Facebook Follow gcmap on Twitter Follow gcmap on Google+ GCmap on LinkedIn

hCard Microformat

Geo Microformat